Aérodrome :
LOGIN :

S'inscrire | Disclaimer

   EN    FR    IT 

 










Légende :    VFR   VFR Marginal   IFR   IFR Intensif   IFR Très Intensif
Visi : 
Plafond : 
>= 8 km
>= 3000ft
5 à 8 km
1000 à 3000 ft
1500m à 5 km
500 à 1000 ft
800 à 1500m
200 à 500 ft
< 800m
< 200 ft
Symboles :   Orages  Brouillard  Fortes neiges  Fortes précipitations  Vent > 20 kt
SIGMETs :   Divers  Orages  Givrage  Turbulence  Onde Orograph.  Cendres Volcan.






- Altitude de l'aérodrome : 1276 ft
- Code IATA : STR


EDDS - Stuttgart

DERNIER METAR :
  • 231320Z 23006KT 180V270 9999 FEW020 04/01 Q0996 NOSIG

METARs EXPIRÉS :
  • 231250Z 24008KT 9999 FEW020 04/01 Q0996 NOSIG
  • 231220Z 22006KT 170V260 9999 FEW020 04/00 Q0997 R88/CLRD// NOSIG
  • 231150Z 21004KT 170V300 9999 FEW020 04/00 Q0997 R88/CLRD// NOSIG
  • 231120Z 20004KT 160V250 9999 FEW015 03/01 Q0998 R88/CLRD// NOSIG
  • 231050Z 21003KT 150V280 CAVOK 03/00 Q0998 R88/CLRD// NOSIG

TAF TAF EDDS
Valide du 23 à 12h jusqu'au 24 à 12h UTC


231100Z 2312/2412 18004KT 9999 FEW025
TEMPO 2318/2322 RASN
TEMPO 2322/2404 2500 SHSN BKN015CB
BECMG 2401/2403 25009KT
TEMPO 2404/2408 27015G25KT 4000 -SN BKN014



MET'MAP, la Météo Aéronautique d'un coup d'oeil ! - Copyright ORBIFLY Décembre 2007 - Disclaimer

ORBIFLY MET'MAP TEAM :

Programmation & Développement : Alexandra Zaïnal
Sur une idée originale de : Baudouin d'Aumeries
Assistance à la programmation : Marc-Olivier Méhu
Soutien technique & logistique : Manuel Goepfert

Contact : metmap@orbifly.com




SOURCES & CREDITS :

   NOAA